Airfield :
LOGIN :

Register | Disclaimer

   EN    FR    IT 

 










Legend :    VFR   Marginal VFR   IFR   Intensive IFR   Very Intensive IFR
Visi :
Ceiling :
>= 8 km
>= 3000ft
5 to 8 km
1000 to 3000 ft
1500m to 5 km
500 to 1000 ft
800 to 1500m
200 to 500 ft
< 800m
< 200 ft
Symbols :   Thunderstorms  Fog  Heavy snow  Heavy precipitations  Wind > 20 kt
SIGMETs :     Misc.  Thunderstorms  Icing  Turbulence  Mountain Waves  Volcanic Ashes






- Airport Elevation : 574 ft
- IATA code : NDR


GMMW - Nador El Aroui

CURRENT METAR :
  • 021200Z 30005KT 270V340 8000 SCT012 BKN080 14/09 Q1010 NOSIG

EXPIRED METARs :
  • 021100Z 27003KT 6000 SCT012 BKN080 14/10 Q1010 NOSIG
  • 021000Z VRB01KT 6000 FEW010 SCT015 BKN080 12/10 Q1011 NOSIG
  • 020900Z 24004KT 6000 FEW008 SCT015 BKN075 11/10 Q1011 RERA NOSIG

TAF TAF GMMW
Valid from the 02 at 12:00 until the 03 at 18:00 UTC


021100Z 0212/0318 28004KT 6000 SCT012 BKN080
PROB30
TEMPO 0212/0218 5000 -RA



MET'MAP, your aeronautical weather chart ! - Copyright ORBIFLY December 2007 - Disclaimer

ORBIFLY MET'MAP TEAM :

Programming & Development : Alexandra Zaïnal
Original concept : Baudouin d'Aumeries
Technical & hardware support : Manuel Goepfert
Assistance : Marc-Olivier Méhu




SOURCES & CREDITS :

   NOAA